Time;durP1;ratioP1;P1;durP2;ratioP2;P2;SDS_P1;SDS_P2;PMS_P1;PMS_P2;Temp;Humidity;BMP_temperature;BMP_pressure;BME280_temperature;BME280_humidity;BME280_pressure;Samples;Min_cycle;Max_cycle;Signal;HPM_P1;HPM_P2
2023/09/28 00:02:58;;;;;;;;;;;;;;;16.28;44.15;100794.69;4973371;27;98020;-62
2023/09/28 00:05:24;;;;;;;;;;;;;;;16.25;44.27;100804.22;4962423;27;98003;-55
2023/09/28 00:07:50;;;;;;;;;;;;;;;16.24;44.11;100802.63;4958133;28;98094;-56
2023/09/28 00:10:16;;;;;;;;;;;;;;;16.21;44.22;100800.50;4949725;28;98070;-61
2023/09/28 00:12:50;;;;;;;;;;;;;;;16.22;44.14;100799.38;4962604;28;98555;-61
2023/09/28 00:15:16;;;;;;;;;;;;;;;16.19;44.22;100795.38;4962503;27;98525;-61
2023/09/28 00:17:42;;;;;;;;;;;;;;;16.19;44.16;100799.97;4964879;28;102091;-56
2023/09/28 00:20:20;;;;;;;;;;;;;;;16.15;44.19;100805.22;4944133;28;98086;-61
2023/09/28 00:22:51;;;;;;;;;;;;;;;16.12;44.07;100794.13;4958952;28;100457;-61
2023/09/28 00:25:19;;;;;;;;;;;;;;;16.10;44.14;100797.13;4976930;27;98233;-56
2023/09/28 00:27:47;;;;;;;;;;;;;;;16.07;44.24;100803.16;4973720;27;98406;-61
2023/09/28 00:30:15;;;;;;;;;;;;;;;16.05;43.98;100810.00;4974227;27;98506;-61
2023/09/28 00:32:44;;;;;;;;;;;;;;;16.03;44.16;100801.31;4947771;28;98666;-61
2023/09/28 00:35:10;;;;;;;;;;;;;;;16.00;44.08;100810.09;4948298;28;98580;-56
2023/09/28 00:37:37;;;;;;;;;;;;;;;15.98;44.16;100804.13;4946288;28;97959;-56
2023/09/28 00:40:18;;;;;;;;;;;;;;;15.96;44.32;100804.44;4945638;28;99776;-56
2023/09/28 00:42:54;;;;;;;;;;;;;;;15.94;44.21;100801.19;4971463;27;98745;-56
2023/09/28 00:45:21;;;;;;;;;;;;;;;15.91;44.15;100805.28;4963710;28;98489;-56
2023/09/28 00:47:51;;;;;;;;;;;;;;;15.90;44.40;100803.69;4976095;27;98175;-56
2023/09/28 00:50:18;;;;;;;;;;;;;;;15.90;44.33;100800.16;4962015;28;100202;-61
2023/09/28 00:52:46;;;;;;;;;;;;;;;15.88;44.35;100797.75;4979062;27;98463;-56
2023/09/28 00:55:13;;;;;;;;;;;;;;;15.86;44.29;100799.94;4959490;28;98703;-62
2023/09/28 00:57:39;;;;;;;;;;;;;;;15.84;44.31;100795.91;4940536;28;98249;-55
2023/09/28 01:00:16;;;;;;;;;;;;;;;15.81;44.40;100791.06;4945885;28;99487;-62
2023/09/28 01:02:42;;;;;;;;;;;;;;;15.77;44.13;100801.72;4972733;27;98337;-62
2023/09/28 01:05:08;;;;;;;;;;;;;;;15.75;44.19;100806.63;4963508;28;99660;-56
2023/09/28 01:07:34;;;;;;;;;;;;;;;15.71;44.49;100800.94;4958720;28;98077;-62
2023/09/28 01:10:01;;;;;;;;;;;;;;;15.70;44.45;100802.06;4964183;28;100159;-56
2023/09/28 01:12:27;;;;;;;;;;;;;;;15.68;44.29;100798.03;4962404;28;98634;-61
2023/09/28 01:14:55;;;;;;;;;;;;;;;15.66;44.24;100806.47;4946712;28;98165;-62
2023/09/28 01:17:21;;;;;;;;;;;;;;;15.63;44.30;100803.50;4945966;28;99329;-56
2023/09/28 01:19:47;;;;;;;;;;;;;;;15.60;44.25;100794.03;4947406;28;98241;-61
2023/09/28 01:22:16;;;;;;;;;;;;;;;15.56;44.33;100798.44;4960921;28;98149;-56
2023/09/28 01:24:44;;;;;;;;;;;;;;;15.54;44.35;100794.41;4942789;28;128092;-56
2023/09/28 01:27:10;;;;;;;;;;;;;;;15.52;44.17;100800.09;4964036;28;98109;-56
2023/09/28 01:29:37;;;;;;;;;;;;;;;15.50;44.26;100802.31;4959304;28;97970;-62
2023/09/28 01:32:03;;;;;;;;;;;;;;;15.48;44.25;100796.34;4932416;28;99509;-56
2023/09/28 01:34:29;;;;;;;;;;;;;;;15.46;44.33;100804.00;4931568;28;98850;-56
2023/09/28 01:36:55;;;;;;;;;;;;;;;15.45;44.37;100799.69;4944153;28;98380;-61
2023/09/28 01:39:21;;;;;;;;;;;;;;;15.44;44.29;100807.03;4958426;28;98534;-55
2023/09/28 01:41:47;;;;;;;;;;;;;;;15.44;44.52;100806.19;4940015;28;118837;-61
2023/09/28 01:44:13;;;;;;;;;;;;;;;15.47;44.33;100808.31;4957809;28;127355;-55
2023/09/28 01:46:39;;;;;;;;;;;;;;;15.53;44.47;100799.03;4930710;28;98590;-61
2023/09/28 01:49:05;;;;;;;;;;;;;;;15.63;44.43;100806.22;4947176;28;99310;-61
2023/09/28 01:51:31;;;;;;;;;;;;;;;15.69;44.18;100800.47;4929499;28;98084;-61
2023/09/28 01:53:58;;;;;;;;;;;;;;;15.75;44.34;100808.53;4929451;28;98110;-61
2023/09/28 01:56:24;;;;;;;;;;;;;;;15.79;44.30;100804.13;4929024;28;98038;-55
2023/09/28 01:58:51;;;;;;;;;;;;;;;15.81;44.41;100805.44;4957624;28;98638;-56
2023/09/28 02:01:22;;;;;;;;;;;;;;;15.83;44.30;100795.06;4950825;28;99021;-61
2023/09/28 02:03:48;;;;;;;;;;;;;;;15.84;44.37;100802.16;4959868;28;97919;-56
2023/09/28 02:06:15;;;;;;;;;;;;;;;15.85;44.44;100801.03;4957995;28;98406;-61
2023/09/28 02:08:41;;;;;;;;;;;;;;;15.85;44.23;100805.69;4941122;28;99574;-61
2023/09/28 02:11:07;;;;;;;;;;;;;;;15.84;44.39;100804.88;4942839;28;98871;-62
2023/09/28 02:13:34;;;;;;;;;;;;;;;15.84;44.53;100802.16;4946506;28;98319;-61
2023/09/28 02:16:00;;;;;;;;;;;;;;;15.83;44.55;100803.22;4930032;28;98274;-61
2023/09/28 02:18:26;;;;;;;;;;;;;;;15.82;44.43;100803.53;4973267;27;98227;-55
2023/09/28 02:20:52;;;;;;;;;;;;;;;15.81;44.48;100801.94;4942253;28;99880;-56
2023/09/28 02:23:19;;;;;;;;;;;;;;;15.79;44.45;100806.84;4959732;28;98180;-56
2023/09/28 02:25:45;;;;;;;;;;;;;;;15.75;44.58;100805.81;4926302;28;98611;-62
2023/09/28 02:28:12;;;;;;;;;;;;;;;15.70;44.31;100802.06;4944506;28;98130;-56
2023/09/28 02:30:38;;;;;;;;;;;;;;;15.67;44.38;100805.34;4929047;28;98935;-56
2023/09/28 02:33:06;;;;;;;;;;;;;;;15.65;44.65;100807.56;4973785;27;98306;-56
2023/09/28 02:35:32;;;;;;;;;;;;;;;15.62;44.40;100805.41;4932998;28;98676;-61
2023/09/28 02:37:59;;;;;;;;;;;;;;;15.61;44.50;100806.50;4948560;28;98087;-56
2023/09/28 02:40:25;;;;;;;;;;;;;;;15.58;44.65;100809.81;4945073;28;99423;-61
2023/09/28 02:42:52;;;;;;;;;;;;;;;15.57;44.30;100810.91;4960853;28;98283;-61
2023/09/28 02:45:18;;;;;;;;;;;;;;;15.54;44.31;100816.94;4957224;28;99855;-61
2023/09/28 02:47:46;;;;;;;;;;;;;;;15.54;44.36;100824.28;4971983;27;98343;-61
2023/09/28 02:50:13;;;;;;;;;;;;;;;15.51;44.63;100828.38;4961239;28;98397;-56
2023/09/28 02:52:40;;;;;;;;;;;;;;;15.49;44.50;100833.31;4944112;28;97957;-61
2023/09/28 02:55:08;;;;;;;;;;;;;;;15.47;44.70;100833.59;4945291;28;98680;-61
2023/09/28 02:57:34;;;;;;;;;;;;;;;15.44;44.62;100828.75;4933052;28;98033;-56
2023/09/28 03:00:01;;;;;;;;;;;;;;;15.39;44.61;100826.06;4966370;28;98002;-56
2023/09/28 03:02:27;;;;;;;;;;;;;;;15.34;44.76;100822.63;4981564;27;98007;-56
2023/09/28 03:04:53;;;;;;;;;;;;;;;15.32;44.67;100819.38;4932306;28;98209;-61
2023/09/28 03:07:19;;;;;;;;;;;;;;;15.29;44.83;100830.81;4976812;27;100294;-62
2023/09/28 03:09:46;;;;;;;;;;;;;;;15.22;44.54;100821.13;4949563;28;98236;-56
2023/09/28 03:12:12;;;;;;;;;;;;;;;15.19;44.59;100818.19;4976098;27;99685;-56
2023/09/28 03:14:38;;;;;;;;;;;;;;;15.14;44.79;100829.09;4950490;28;97863;-61
2023/09/28 03:17:04;;;;;;;;;;;;;;;15.10;44.52;100833.50;4930146;28;100141;-61
2023/09/28 03:19:31;;;;;;;;;;;;;;;15.08;44.49;100832.97;4960336;28;100309;-61
2023/09/28 03:21:57;;;;;;;;;;;;;;;15.07;44.83;100831.34;4965571;28;98661;-61
2023/09/28 03:24:23;;;;;;;;;;;;;;;15.06;44.84;100832.47;4959327;28;117897;-61
2023/09/28 03:26:51;;;;;;;;;;;;;;;15.03;44.80;100822.97;4967532;28;98607;-56
2023/09/28 03:29:17;;;;;;;;;;;;;;;15.02;44.80;100831.41;4948147;28;99846;-61
2023/09/28 03:31:43;;;;;;;;;;;;;;;15.01;44.79;100832.50;4967588;28;99398;-61
2023/09/28 03:34:10;;;;;;;;;;;;;;;14.98;44.43;100842.84;4966479;28;98327;-56
2023/09/28 03:36:36;;;;;;;;;;;;;;;14.94;44.60;100841.00;4948236;28;100370;-61
2023/09/28 03:39:02;;;;;;;;;;;;;;;14.90;44.86;100842.66;4931098;28;98558;-62
2023/09/28 03:41:29;;;;;;;;;;;;;;;14.88;44.65;100845.66;4961508;28;97957;-61
2023/09/28 03:43:55;;;;;;;;;;;;;;;14.86;44.80;100841.63;4976892;27;98179;-56
2023/09/28 03:46:21;;;;;;;;;;;;;;;14.84;44.72;100838.38;4944184;28;97862;-56
2023/09/28 03:48:48;;;;;;;;;;;;;;;14.83;44.92;100837.56;4931208;28;97959;-61
2023/09/28 03:51:17;;;;;;;;;;;;;;;14.82;44.77;100843.28;4949597;28;98568;-61
2023/09/28 03:53:43;;;;;;;;;;;;;;;14.80;44.68;100840.84;4952264;28;98205;-56
2023/09/28 03:56:10;;;;;;;;;;;;;;;14.79;45.00;100835.72;4945030;28;98226;-56
2023/09/28 03:58:37;;;;;;;;;;;;;;;14.77;44.92;100835.19;4932247;28;99583;-61
2023/09/28 04:01:07;;;;;;;;;;;;;;;14.75;44.83;100845.53;4945843;28;98295;-61
2023/09/28 04:03:34;;;;;;;;;;;;;;;14.70;44.66;100836.34;4946664;28;98169;-61
2023/09/28 04:06:01;;;;;;;;;;;;;;;14.69;44.54;100834.69;4972830;27;100720;-62
2023/09/28 04:08:27;;;;;;;;;;;;;;;14.67;44.88;100831.47;4946520;28;98854;-56
2023/09/28 04:10:55;;;;;;;;;;;;;;;14.65;44.94;100838.28;4947381;28;97938;-56
2023/09/28 04:13:21;;;;;;;;;;;;;;;14.63;44.93;100835.88;4962800;28;99583;-61
2023/09/28 04:15:48;;;;;;;;;;;;;;;14.61;44.86;100832.59;4926824;28;98228;-55
2023/09/28 04:18:14;;;;;;;;;;;;;;;14.60;44.98;100841.03;4963302;28;98046;-61
2023/09/28 04:20:41;;;;;;;;;;;;;;;14.58;44.75;100830.50;4975394;27;126122;-61
2023/09/28 04:23:08;;;;;;;;;;;;;;;14.59;45.15;100834.81;4949295;28;98050;-55
2023/09/28 04:25:35;;;;;;;;;;;;;;;14.58;45.00;100829.66;4964636;28;98371;-61
2023/09/28 04:28:01;;;;;;;;;;;;;;;14.56;44.61;100834.56;4967491;28;98878;-62
2023/09/28 04:30:27;;;;;;;;;;;;;;;14.52;45.08;100828.91;4945132;28;98481;-56
2023/09/28 04:32:54;;;;;;;;;;;;;;;14.49;45.07;100832.97;4948726;28;97960;-61
2023/09/28 04:35:20;;;;;;;;;;;;;;;14.48;44.63;100827.81;4945201;28;99804;-56
2023/09/28 04:37:50;;;;;;;;;;;;;;;14.46;44.55;100828.13;4925671;28;98109;-61
2023/09/28 04:40:23;;;;;;;;;;;;;;;14.44;45.02;100824.88;4944270;28;98315;-61
2023/09/28 04:42:49;;;;;;;;;;;;;;;14.43;44.79;100825.16;4922431;28;98233;-62
2023/09/28 04:45:15;;;;;;;;;;;;;;;14.42;44.77;100827.06;4958276;28;99527;-62
2023/09/28 04:47:42;;;;;;;;;;;;;;;14.44;45.08;100826.78;4940362;28;114551;-61
2023/09/28 04:50:09;;;;;;;;;;;;;;;14.43;44.78;100823.25;4959563;28;98240;-61
2023/09/28 04:52:35;;;;;;;;;;;;;;;14.42;45.00;100832.50;4944156;28;98450;-61
2023/09/28 04:55:01;;;;;;;;;;;;;;;14.41;44.96;100822.72;4949057;28;99291;-61
2023/09/28 04:57:27;;;;;;;;;;;;;;;14.41;44.68;100821.91;4963537;28;97916;-61
2023/09/28 04:59:53;;;;;;;;;;;;;;;14.41;44.93;100835.47;4942110;28;112176;-61
2023/09/28 05:02:20;;;;;;;;;;;;;;;14.41;44.81;100830.84;4944068;28;98200;-55
2023/09/28 05:04:46;;;;;;;;;;;;;;;14.41;45.15;100833.56;4961852;27;99446;-61
2023/09/28 05:07:12;;;;;;;;;;;;;;;14.41;44.94;100830.84;4959739;28;100206;-56
2023/09/28 05:09:38;;;;;;;;;;;;;;;14.43;44.63;100841.44;4947895;28;98347;-61
2023/09/28 05:12:05;;;;;;;;;;;;;;;14.45;44.92;100842.75;4930904;28;98328;-61
2023/09/28 05:14:31;;;;;;;;;;;;;;;14.46;44.84;100844.41;4944523;28;98740;-61
2023/09/28 05:16:57;;;;;;;;;;;;;;;14.46;44.69;100847.09;4941778;28;98204;-61
2023/09/28 05:19:25;;;;;;;;;;;;;;;14.48;44.89;100850.31;4957993;28;98127;-56
2023/09/28 05:21:51;;;;;;;;;;;;;;;14.50;44.74;100847.34;4947160;28;99382;-56
2023/09/28 05:24:17;;;;;;;;;;;;;;;14.53;44.71;100848.69;4932453;28;97907;-61
2023/09/28 05:26:43;;;;;;;;;;;;;;;14.56;44.65;100853.56;4927257;28;98164;-61
2023/09/28 05:29:10;;;;;;;;;;;;;;;14.56;45.02;100846.22;4963235;28;98161;-61
2023/09/28 05:31:36;;;;;;;;;;;;;;;14.59;44.58;100848.38;4943690;28;98159;-56
2023/09/28 05:34:03;;;;;;;;;;;;;;;14.59;44.95;100859.22;4945029;28;98427;-61
2023/09/28 05:36:29;;;;;;;;;;;;;;;14.64;44.63;100867.31;4963742;28;98150;-61
2023/09/28 05:38:55;;;;;;;;;;;;;;;14.66;44.80;100859.72;4942111;28;100037;-61
2023/09/28 05:41:22;;;;;;;;;;;;;;;14.69;44.48;100858.31;4962405;28;98070;-61
2023/09/28 05:43:48;;;;;;;;;;;;;;;14.71;44.74;100854.22;4949707;28;97787;-56
2023/09/28 05:46:14;;;;;;;;;;;;;;;14.75;44.43;100862.63;4943781;28;106759;-55
2023/09/28 05:48:40;;;;;;;;;;;;;;;14.78;44.62;100853.09;4944376;28;100249;-56
2023/09/28 05:51:07;;;;;;;;;;;;;;;14.81;44.74;100857.94;4930661;28;107325;-62
2023/09/28 05:53:32;;;;;;;;;;;;;;;14.83;44.46;100867.41;4944706;28;99481;-56
2023/09/28 05:55:59;;;;;;;;;;;;;;;14.87;44.63;100860.31;4958153;28;118799;-56
2023/09/28 05:58:25;;;;;;;;;;;;;;;14.89;44.41;100866.25;4942782;28;98401;-56
2023/09/28 06:00:50;;;;;;;;;;;;;;;14.92;44.64;100867.59;4971758;27;98568;-56
2023/09/28 06:03:17;;;;;;;;;;;;;;;14.95;44.49;100873.28;4947218;28;98205;-61
2023/09/28 06:05:43;;;;;;;;;;;;;;;15.00;44.74;100879.75;4940746;28;98197;-55
2023/09/28 06:08:09;;;;;;;;;;;;;;;15.05;44.41;100879.69;4962356;28;97979;-56
2023/09/28 06:10:37;;;;;;;;;;;;;;;15.10;44.41;100880.47;4958898;28;122024;-62
2023/09/28 06:13:04;;;;;;;;;;;;;;;15.14;44.50;100877.97;4962322;28;98606;-56
2023/09/28 06:15:30;;;;;;;;;;;;;;;15.20;44.53;100876.81;4961651;28;98641;-61
2023/09/28 06:17:56;;;;;;;;;;;;;;;15.25;44.47;100875.94;4963469;28;98002;-61
2023/09/28 06:20:22;;;;;;;;;;;;;;;15.32;44.73;100876.41;4938106;28;113664;-61
2023/09/28 06:22:48;;;;;;;;;;;;;;;15.37;44.39;100876.38;4973154;27;111920;-60
2023/09/28 06:25:14;;;;;;;;;;;;;;;15.43;44.28;100881.44;4975003;27;98617;-61
2023/09/28 06:27:41;;;;;;;;;;;;;;;15.51;44.33;100876.47;4946903;28;98398;-61
2023/09/28 06:30:07;;;;;;;;;;;;;;;15.60;44.32;100882.88;4958736;28;98711;-61
2023/09/28 06:32:34;;;;;;;;;;;;;;;15.68;44.33;100885.00;4967989;28;98382;-61
2023/09/28 06:35:01;;;;;;;;;;;;;;;15.76;44.53;100887.06;4941455;28;98117;-61
2023/09/28 06:37:27;;;;;;;;;;;;;;;15.81;44.46;100889.72;4957041;28;98777;-56
2023/09/28 06:39:54;;;;;;;;;;;;;;;15.89;44.31;100886.34;4946474;28;98308;-61
2023/09/28 06:42:19;;;;;;;;;;;;;;;16.00;44.22;100891.66;4944886;28;98936;-61
2023/09/28 06:44:45;;;;;;;;;;;;;;;16.07;44.35;100892.06;4960260;28;122705;-55
2023/09/28 06:47:12;;;;;;;;;;;;;;;16.15;44.27;100884.06;4946648;28;98356;-55
2023/09/28 06:49:38;;;;;;;;;;;;;;;16.25;44.36;100882.31;4957779;28;98348;-61
2023/09/28 06:52:05;;;;;;;;;;;;;;;16.36;44.50;100881.03;4960733;28;98187;-61
2023/09/28 06:54:32;;;;;;;;;;;;;;;16.47;44.93;100878.97;4944685;28;98373;-61
2023/09/28 06:56:58;;;;;;;;;;;;;;;16.58;44.61;100877.69;4961697;28;98106;-61
2023/09/28 06:59:25;;;;;;;;;;;;;;;16.68;44.54;100870.16;4961103;28;98606;-61
2023/09/28 07:01:51;;;;;;;;;;;;;;;16.77;44.29;100873.03;4946931;28;98572;-61
2023/09/28 07:04:17;;;;;;;;;;;;;;;16.88;44.46;100879.91;4956988;28;103019;-62
2023/09/28 07:06:43;;;;;;;;;;;;;;;17.01;44.92;100882.97;4955686;28;114244;-61
2023/09/28 07:09:09;;;;;;;;;;;;;;;17.10;44.46;100887.44;4944906;28;98220;-61
2023/09/28 07:11:35;;;;;;;;;;;;;;;17.21;44.41;100889.94;4947369;28;100114;-56
2023/09/28 07:14:01;;;;;;;;;;;;;;;17.32;44.57;100885.94;4958601;28;98908;-62
2023/09/28 07:16:27;;;;;;;;;;;;;;;17.42;44.30;100885.75;4961704;28;100846;-56
2023/09/28 07:18:53;;;;;;;;;;;;;;;17.54;44.44;100891.47;4930493;28;102323;-61
2023/09/28 07:21:20;;;;;;;;;;;;;;;17.65;44.13;100884.72;4935903;28;98358;-62
2023/09/28 07:23:46;;;;;;;;;;;;;;;17.80;44.11;100891.81;4943146;28;98308;-62
2023/09/28 07:26:16;;;;;;;;;;;;;;;17.95;44.07;100895.28;4922864;28;98493;-62
2023/09/28 07:28:43;;;;;;;;;;;;;;;18.10;44.02;100894.97;4927461;28;98883;-62
2023/09/28 07:31:10;;;;;;;;;;;;;;;18.27;43.81;100886.91;4943847;28;99971;-61
2023/09/28 07:33:36;;;;;;;;;;;;;;;18.50;44.03;100895.13;4917489;28;98644;-55
2023/09/28 07:36:05;;;;;;;;;;;;;;;18.63;43.84;100900.53;4936992;28;98126;-61
2023/09/28 07:38:34;;;;;;;;;;;;;;;18.83;43.87;100907.44;4961309;28;98265;-56
2023/09/28 07:41:04;;;;;;;;;;;;;;;18.99;43.66;100902.38;4959469;28;98262;-61
2023/09/28 07:43:30;;;;;;;;;;;;;;;19.15;43.68;100907.44;4945494;28;100085;-55
2023/09/28 07:45:59;;;;;;;;;;;;;;;19.32;43.79;100904.78;4946401;28;98704;-61
2023/09/28 07:48:26;;;;;;;;;;;;;;;19.48;43.44;100900.47;4963064;28;98454;-61
2023/09/28 07:50:52;;;;;;;;;;;;;;;19.69;43.44;100905.41;4959446;28;98382;-61
2023/09/28 07:53:18;;;;;;;;;;;;;;;19.90;43.46;100908.34;4957841;28;129867;-61
2023/09/28 07:55:45;;;;;;;;;;;;;;;20.13;43.18;100896.16;4979400;27;99092;-56
2023/09/28 07:58:10;;;;;;;;;;;;;;;20.44;42.99;100900.66;4932996;28;98386;-61
2023/09/28 08:00:37;;;;;;;;;;;;;;;20.76;42.83;100907.56;4962639;28;98848;-61
2023/09/28 08:03:03;;;;;;;;;;;;;;;21.31;42.26;100920.47;4961876;28;97779;-55
2023/09/28 08:05:31;;;;;;;;;;;;;;;22.30;41.32;100915.41;4963440;28;98073;-56
2023/09/28 08:07:58;;;;;;;;;;;;;;;22.54;41.63;100922.94;4950282;28;98886;-61
2023/09/28 08:10:24;;;;;;;;;;;;;;;23.04;41.13;100921.19;4951129;28;100636;-56
2023/09/28 08:12:50;;;;;;;;;;;;;;;23.26;41.23;100928.19;4928426;28;118201;-62
2023/09/28 08:15:16;;;;;;;;;;;;;;;24.52;39.76;100925.44;4961993;28;126499;-62
2023/09/28 08:17:45;;;;;;;;;;;;;;;25.44;39.39;100929.09;4950015;28;99084;-56
2023/09/28 08:20:12;;;;;;;;;;;;;;;27.82;37.54;100932.22;4975357;27;98638;-62
2023/09/28 08:22:38;;;;;;;;;;;;;;;28.67;37.88;100936.53;4964842;28;98714;-62
2023/09/28 08:25:08;;;;;;;;;;;;;;;31.10;36.57;100944.44;4958903;28;98521;-62
2023/09/28 08:27:34;;;;;;;;;;;;;;;34.04;33.99;100950.28;4960858;28;98075;-63
2023/09/28 08:30:01;;;;;;;;;;;;;;;36.08;33.03;100964.00;4946345;28;98288;-57
2023/09/28 08:32:27;;;;;;;;;;;;;;;37.57;31.85;100964.63;4961336;28;109253;-63
2023/09/28 08:34:54;;;;;;;;;;;;;;;38.62;31.94;100950.03;4929060;28;99325;-63
2023/09/28 08:37:20;;;;;;;;;;;;;;;39.67;31.86;100940.59;4959146;28;98696;-57
2023/09/28 08:39:46;;;;;;;;;;;;;;;40.58;31.60;100930.38;4944702;28;99928;-57
2023/09/28 08:42:13;;;;;;;;;;;;;;;40.98;31.97;100924.72;4949053;28;98138;-63
2023/09/28 08:44:39;;;;;;;;;;;;;;;41.99;31.66;100927.63;4940311;28;99753;-58
2023/09/28 08:47:15;;;;;;;;;;;;;;;42.91;31.17;100918.81;4962876;28;98270;-61
2023/09/28 08:49:43;;;;;;;;;;;;;;;43.48;31.07;100915.19;4962908;28;97936;-61
2023/09/28 08:52:09;;;;;;;;;;;;;;;43.75;30.69;100912.09;4945396;28;98902;-61
2023/09/28 08:54:35;;;;;;;;;;;;;;;43.76;30.70;100907.19;4971218;27;98459;-55
2023/09/28 08:57:01;;;;;;;;;;;;;;;43.63;31.01;100898.97;4971775;27;98337;-61
2023/09/28 08:59:30;;;;;;;;;;;;;;;41.83;32.10;100902.53;4960159;28;106707;-56
2023/09/28 09:01:56;;;;;;;;;;;;;;;39.92;33.98;100886.06;4946495;28;98320;-55
2023/09/28 09:04:22;;;;;;;;;;;;;;;40.26;33.27;100880.81;4956747;28;98178;-56
2023/09/28 09:06:48;;;;;;;;;;;;;;;39.24;33.84;100882.88;4971098;27;121267;-61
2023/09/28 09:09:15;;;;;;;;;;;;;;;37.47;35.59;100882.19;4959974;28;98200;-56
2023/09/28 09:11:50;;;;;;;;;;;;;;;36.33;36.69;100871.69;4958233;28;99441;-56
2023/09/28 09:14:17;;;;;;;;;;;;;;;35.55;37.47;100867.69;4968251;28;100541;-56
2023/09/28 09:16:43;;;;;;;;;;;;;;;34.96;37.98;100869.06;4948127;28;97913;-56
2023/09/28 09:19:14;;;;;;;;;;;;;;;34.45;37.93;100862.63;4940425;28;109492;-62
2023/09/28 09:21:42;;;;;;;;;;;;;;;33.97;38.26;100860.88;4960685;28;114399;-62
2023/09/28 09:24:11;;;;;;;;;;;;;;;33.58;38.86;100864.13;4943199;28;98211;-63
2023/09/28 09:26:47;;;;;;;;;;;;;;;33.30;38.50;100862.38;4945901;28;98134;-63
2023/09/28 09:29:14;;;;;;;;;;;;;;;33.12;38.82;100862.53;4945709;28;98403;-56
2023/09/28 09:31:47;;;;;;;;;;;;;;;33.02;38.97;100869.81;4939426;28;100015;-62
2023/09/28 09:34:14;;;;;;;;;;;;;;;32.89;38.73;100880.63;4971774;27;99993;-56
2023/09/28 09:36:43;;;;;;;;;;;;;;;32.85;39.07;100877.06;4944591;28;98165;-57
2023/09/28 09:39:19;;;;;;;;;;;;;;;32.82;38.99;100874.31;4945184;28;99412;-57
2023/09/28 09:41:45;;;;;;;;;;;;;;;32.85;38.74;100879.06;4960098;28;110547;-56
2023/09/28 09:44:15;;;;;;;;;;;;;;;32.89;38.73;100882.63;4964962;28;100614;-57
2023/09/28 09:46:41;;;;;;;;;;;;;;;32.94;38.56;100876.66;4974373;27;100379;-63
2023/09/28 09:49:07;;;;;;;;;;;;;;;32.97;38.82;100873.84;4971933;27;98148;-57
2023/09/28 09:51:33;;;;;;;;;;;;;;;33.00;38.93;100880.56;4941279;28;126970;-57
2023/09/28 09:53:59;;;;;;;;;;;;;;;33.06;38.82;100883.75;4962619;28;101555;-56
2023/09/28 09:56:25;;;;;;;;;;;;;;;33.09;38.54;100875.34;4961708;28;100069;-63
2023/09/28 09:58:51;;;;;;;;;;;;;;;33.16;38.85;100871.66;4946438;28;126136;-62
2023/09/28 10:01:18;;;;;;;;;;;;;;;33.22;38.50;100865.22;4944029;28;101238;-62
2023/09/28 10:03:50;;;;;;;;;;;;;;;33.19;38.26;100873.63;4924134;28;98299;-56
2023/09/28 10:06:17;;;;;;;;;;;;;;;33.28;38.45;100873.94;4972449;27;99089;-56
2023/09/28 10:08:45;;;;;;;;;;;;;;;33.33;38.07;100870.72;4962680;28;98007;-62
2023/09/28 10:11:12;;;;;;;;;;;;;;;33.41;38.46;100877.81;4957102;28;98240;-56
2023/09/28 10:13:38;;;;;;;;;;;;;;;33.51;38.42;100872.56;4957226;28;98792;-62
2023/09/28 10:16:04;;;;;;;;;;;;;;;33.63;38.30;100866.44;4939054;28;111727;-61
2023/09/28 10:18:30;;;;;;;;;;;;;;;33.75;38.49;100865.91;4959297;28;127328;-57
2023/09/28 10:20:58;;;;;;;;;;;;;;;33.81;38.02;100863.47;4956523;27;108166;-62
2023/09/28 10:23:25;;;;;;;;;;;;;;;33.98;38.39;100861.69;4960939;28;98216;-62
2023/09/28 10:25:57;;;;;;;;;;;;;;;34.05;37.88;100856.78;4941255;28;118725;-56
2023/09/28 10:28:24;;;;;;;;;;;;;;;34.18;38.09;100855.00;4959487;28;98102;-56
2023/09/28 10:31:07;;;;;;;;;;;;;;;34.38;37.64;100868.31;4944308;28;98803;-62
2023/09/28 10:33:33;;;;;;;;;;;;;;;34.54;37.47;100865.72;4958505;28;98128;-56
2023/09/28 10:36:12;;;;;;;;;;;;;;;34.60;37.56;100861.25;4972054;27;99735;-56
2023/09/28 10:38:40;;;;;;;;;;;;;;;34.71;37.92;100860.28;4961856;28;120018;-56
2023/09/28 10:41:06;;;;;;;;;;;;;;;34.89;37.58;100855.97;4944562;28;98713;-63
2023/09/28 10:43:43;;;;;;;;;;;;;;;34.86;37.81;100854.03;4956081;28;98071;-56
2023/09/28 10:46:09;;;;;;;;;;;;;;;34.87;37.40;100858.41;4945306;28;98154;-62
2023/09/28 10:48:39;;;;;;;;;;;;;;;34.93;37.38;100856.69;4946811;28;98307;-57
2023/09/28 10:51:10;;;;;;;;;;;;;;;35.08;37.32;100864.91;4974556;27;99867;-57
2023/09/28 10:53:36;;;;;;;;;;;;;;;35.19;37.38;100859.91;4960666;28;99731;-62
2023/09/28 10:56:01;;;;;;;;;;;;;;;35.34;37.41;100855.63;4932184;28;121893;-56
2023/09/28 10:58:28;;;;;;;;;;;;;;;35.61;36.64;100861.16;4954277;28;125073;-56
2023/09/28 11:00:56;;;;;;;;;;;;;;;35.78;36.72;100862.03;4959714;28;99422;-62
2023/09/28 11:03:22;;;;;;;;;;;;;;;35.84;36.83;100857.50;4948481;28;98283;-56
2023/09/28 11:05:48;;;;;;;;;;;;;;;36.33;36.48;100865.28;4970158;27;98000;-62
2023/09/28 11:08:17;;;;;;;;;;;;;;;36.94;36.32;100873.09;4939693;28;130164;-56
2023/09/28 11:10:44;;;;;;;;;;;;;;;37.50;35.41;100875.69;4931906;28;98239;-57
2023/09/28 11:13:10;;;;;;;;;;;;;;;37.63;35.68;100870.13;4963369;28;98568;-56
2023/09/28 11:15:36;;;;;;;;;;;;;;;37.77;35.51;100875.34;4938421;28;98196;-56
2023/09/28 11:18:02;;;;;;;;;;;;;;;37.83;35.87;100862.28;4961338;28;128475;-57
2023/09/28 11:20:28;;;;;;;;;;;;;;;38.07;35.57;100862.81;4943545;28;99664;-62
2023/09/28 11:22:57;;;;;;;;;;;;;;;37.69;35.88;100868.34;4931282;28;99359;-62
2023/09/28 11:25:23;;;;;;;;;;;;;;;37.34;36.20;100858.84;4926278;28;98178;-62
2023/09/28 11:27:49;;;;;;;;;;;;;;;36.94;36.37;100863.91;4975096;27;98067;-57
2023/09/28 11:30:19;;;;;;;;;;;;;;;37.41;35.87;100861.47;4958585;28;98873;-57
2023/09/28 11:32:50;;;;;;;;;;;;;;;37.82;35.53;100851.50;4946034;28;99080;-62
2023/09/28 11:35:18;;;;;;;;;;;;;;;38.14;35.89;100842.13;4958681;28;98128;-56
2023/09/28 11:37:44;;;;;;;;;;;;;;;37.42;36.33;100843.41;4930751;28;98111;-57
2023/09/28 11:40:12;;;;;;;;;;;;;;;37.71;36.20;100845.41;4961079;28;121330;-57
2023/09/28 11:42:39;;;;;;;;;;;;;;;37.91;35.55;100843.22;4964888;28;98161;-56
2023/09/28 11:45:07;;;;;;;;;;;;;;;37.66;35.81;100837.53;4973773;27;119047;-57
2023/09/28 11:47:33;;;;;;;;;;;;;;;37.55;36.06;100847.03;4944262;28;103679;-62
2023/09/28 11:50:07;;;;;;;;;;;;;;;37.72;35.53;100844.94;4943303;28;99530;-57
2023/09/28 11:52:36;;;;;;;;;;;;;;;37.03;36.12;100844.41;4964801;28;98367;-62
2023/09/28 11:55:05;;;;;;;;;;;;;;;36.81;36.86;100850.53;4963710;28;99158;-56
2023/09/28 11:57:34;;;;;;;;;;;;;;;36.77;36.85;100844.22;4942250;28;98154;-57
2023/09/28 12:00:01;;;;;;;;;;;;;;;36.87;36.26;100842.38;4975722;27;100221;-62
2023/09/28 12:02:28;;;;;;;;;;;;;;;36.86;36.61;100844.41;4947174;28;99651;-62
2023/09/28 12:04:55;;;;;;;;;;;;;;;36.61;36.35;100841.41;4961720;28;98427;-62
2023/09/28 12:07:21;;;;;;;;;;;;;;;36.37;36.20;100838.72;4963954;28;98121;-62
2023/09/28 12:09:48;;;;;;;;;;;;;;;36.13;36.92;100826.84;4924944;28;111201;-56
2023/09/28 12:12:14;;;;;;;;;;;;;;;35.97;36.50;100831.59;4941407;28;108488;-55
2023/09/28 12:14:40;;;;;;;;;;;;;;;35.60;37.24;100828.72;4946863;28;99107;-57
2023/09/28 12:17:07;;;;;;;;;;;;;;;35.41;37.35;100827.50;4964435;28;98422;-57
2023/09/28 12:19:33;;;;;;;;;;;;;;;35.35;37.24;100825.59;4947994;28;97891;-57
2023/09/28 12:21:59;;;;;;;;;;;;;;;35.17;37.16;100825.94;4945653;28;99024;-57
2023/09/28 12:24:26;;;;;;;;;;;;;;;34.66;37.71;100828.78;4961824;28;123000;-56
2023/09/28 12:26:54;;;;;;;;;;;;;;;34.46;37.70;100825.03;4967087;28;98206;-63
2023/09/28 12:29:20;;;;;;;;;;;;;;;34.45;37.97;100826.28;4945584;28;98109;-62
2023/09/28 12:31:47;;;;;;;;;;;;;;;34.37;37.76;100830.38;4922235;28;108749;-62
2023/09/28 12:34:13;;;;;;;;;;;;;;;34.29;37.77;100823.31;4929763;28;98105;-63
2023/09/28 12:36:41;;;;;;;;;;;;;;;34.17;37.92;100828.25;4976781;27;98302;-62